sensor_id;sensor_type;location;lat;lon;timestamp;temperature;humidity
11511;DHT22;5812;48.864;9.190;2022-09-09T00:00:23;15.70;1.00
11511;DHT22;5812;48.864;9.190;2022-09-09T00:07:53;15.90;99.90
11511;DHT22;5812;48.864;9.190;2022-09-09T00:10:30;15.90;99.90
11511;DHT22;5812;48.864;9.190;2022-09-09T00:13:16;15.80;99.90
11511;DHT22;5812;48.864;9.190;2022-09-09T00:15:59;15.70;1.00
11511;DHT22;5812;48.864;9.190;2022-09-09T00:21:06;15.60;1.00
11511;DHT22;5812;48.864;9.190;2022-09-09T00:23:38;15.80;1.00
11511;DHT22;5812;48.864;9.190;2022-09-09T00:26:14;15.80;99.90
11511;DHT22;5812;48.864;9.190;2022-09-09T00:28:48;15.70;1.00
11511;DHT22;5812;48.864;9.190;2022-09-09T00:31:23;15.70;1.00
11511;DHT22;5812;48.864;9.190;2022-09-09T00:33:50;15.60;1.00
11511;DHT22;5812;48.864;9.190;2022-09-09T00:36:20;15.70;99.90
11511;DHT22;5812;48.864;9.190;2022-09-09T00:38:56;16.00;99.90
11511;DHT22;5812;48.864;9.190;2022-09-09T00:41:45;16.10;99.90
11511;DHT22;5812;48.864;9.190;2022-09-09T00:44:31;16.10;99.90
11511;DHT22;5812;48.864;9.190;2022-09-09T00:50:15;16.30;1.00
11511;DHT22;5812;48.864;9.190;2022-09-09T00:58:09;16.30;1.00
11511;DHT22;5812;48.864;9.190;2022-09-09T01:00:50;16.50;1.00
11511;DHT22;5812;48.864;9.190;2022-09-09T01:17:33;16.30;44.50
11511;DHT22;5812;48.864;9.190;2022-09-09T01:28:49;16.30;55.10
11511;DHT22;5812;48.864;9.190;2022-09-09T01:31:21;16.30;99.90
11511;DHT22;5812;48.864;9.190;2022-09-09T01:33:48;16.30;99.90
11511;DHT22;5812;48.864;9.190;2022-09-09T01:36:23;16.40;99.90
11511;DHT22;5812;48.864;9.190;2022-09-09T01:38:49;16.30;99.90
11511;DHT22;5812;48.864;9.190;2022-09-09T01:41:15;16.30;99.90
11511;DHT22;5812;48.864;9.190;2022-09-09T01:43:41;16.20;99.90
11511;DHT22;5812;48.864;9.190;2022-09-09T01:46:06;16.30;78.20
11511;DHT22;5812;48.864;9.190;2022-09-09T01:48:33;16.20;99.90
11511;DHT22;5812;48.864;9.190;2022-09-09T01:50:58;16.10;99.90
11511;DHT22;5812;48.864;9.190;2022-09-09T01:53:24;16.10;99.90
11511;DHT22;5812;48.864;9.190;2022-09-09T01:58:47;16.10;99.90
11511;DHT22;5812;48.864;9.190;2022-09-09T02:04:04;16.00;99.90
11511;DHT22;5812;48.864;9.190;2022-09-09T02:06:38;16.00;99.90
11511;DHT22;5812;48.864;9.190;2022-09-09T02:09:07;15.90;99.90
11511;DHT22;5812;48.864;9.190;2022-09-09T02:11:35;15.80;99.90
11511;DHT22;5812;48.864;9.190;2022-09-09T02:14:23;15.70;99.90
11511;DHT22;5812;48.864;9.190;2022-09-09T02:17:10;15.40;1.00
11511;DHT22;5812;48.864;9.190;2022-09-09T02:19:53;15.40;1.00
11511;DHT22;5812;48.864;9.190;2022-09-09T02:22:23;15.40;1.00
11511;DHT22;5812;48.864;9.190;2022-09-09T02:24:50;15.20;1.00
11511;DHT22;5812;48.864;9.190;2022-09-09T02:27:20;15.10;1.00
11511;DHT22;5812;48.864;9.190;2022-09-09T02:29:49;14.90;1.00
11511;DHT22;5812;48.864;9.190;2022-09-09T02:32:20;14.80;1.00
11511;DHT22;5812;48.864;9.190;2022-09-09T02:35:08;14.70;1.00
11511;DHT22;5812;48.864;9.190;2022-09-09T02:37:39;14.70;1.00
11511;DHT22;5812;48.864;9.190;2022-09-09T02:40:07;14.70;1.00
11511;DHT22;5812;48.864;9.190;2022-09-09T02:42:41;14.60;1.00
11511;DHT22;5812;48.864;9.190;2022-09-09T02:45:08;14.60;1.00
11511;DHT22;5812;48.864;9.190;2022-09-09T02:47:37;14.70;1.00
11511;DHT22;5812;48.864;9.190;2022-09-09T02:50:25;14.70;1.00
11511;DHT22;5812;48.864;9.190;2022-09-09T02:53:10;14.80;1.00
11511;DHT22;5812;48.864;9.190;2022-09-09T02:56:02;14.70;1.00
11511;DHT22;5812;48.864;9.190;2022-09-09T02:58:26;14.60;1.00
11511;DHT22;5812;48.864;9.190;2022-09-09T03:00:51;14.70;1.00
11511;DHT22;5812;48.864;9.190;2022-09-09T03:03:18;14.60;1.00
11511;DHT22;5812;48.864;9.190;2022-09-09T03:05:45;14.40;1.00
11511;DHT22;5812;48.864;9.190;2022-09-09T03:08:12;14.40;1.00
11511;DHT22;5812;48.864;9.190;2022-09-09T03:10:38;14.30;1.00
11511;DHT22;5812;48.864;9.190;2022-09-09T03:13:04;14.20;1.00
11511;DHT22;5812;48.864;9.190;2022-09-09T03:15:34;14.20;1.00
11511;DHT22;5812;48.864;9.190;2022-09-09T03:18:00;14.20;1.00
11511;DHT22;5812;48.864;9.190;2022-09-09T03:20:28;14.10;1.00
11511;DHT22;5812;48.864;9.190;2022-09-09T03:22:54;14.00;8.60
11511;DHT22;5812;48.864;9.190;2022-09-09T03:25:21;14.00;7.70
11511;DHT22;5812;48.864;9.190;2022-09-09T03:27:49;14.00;1.00
11511;DHT22;5812;48.864;9.190;2022-09-09T03:30:15;14.20;1.00
11511;DHT22;5812;48.864;9.190;2022-09-09T03:32:41;14.30;1.00
11511;DHT22;5812;48.864;9.190;2022-09-09T03:35:07;14.40;1.00
11511;DHT22;5812;48.864;9.190;2022-09-09T03:37:32;14.50;1.00
11511;DHT22;5812;48.864;9.190;2022-09-09T03:39:58;14.60;1.00
11511;DHT22;5812;48.864;9.190;2022-09-09T03:42:25;14.60;1.00
11511;DHT22;5812;48.864;9.190;2022-09-09T03:44:51;14.50;1.00
11511;DHT22;5812;48.864;9.190;2022-09-09T03:47:17;14.30;1.00
11511;DHT22;5812;48.864;9.190;2022-09-09T03:49:43;14.30;1.00
11511;DHT22;5812;48.864;9.190;2022-09-09T03:52:09;14.50;1.00
11511;DHT22;5812;48.864;9.190;2022-09-09T03:54:35;14.40;1.00
11511;DHT22;5812;48.864;9.190;2022-09-09T03:57:01;14.50;1.00
11511;DHT22;5812;48.864;9.190;2022-09-09T03:59:26;14.50;1.00
11511;DHT22;5812;48.864;9.190;2022-09-09T04:01:53;14.50;1.00
11511;DHT22;5812;48.864;9.190;2022-09-09T04:04:19;14.60;1.00
11511;DHT22;5812;48.864;9.190;2022-09-09T04:06:45;14.60;1.00
11511;DHT22;5812;48.864;9.190;2022-09-09T04:09:14;14.70;1.00
11511;DHT22;5812;48.864;9.190;2022-09-09T04:11:39;14.70;1.00
11511;DHT22;5812;48.864;9.190;2022-09-09T04:14:05;14.70;1.00
11511;DHT22;5812;48.864;9.190;2022-09-09T04:16:34;15.00;1.00
11511;DHT22;5812;48.864;9.190;2022-09-09T04:19:03;15.10;1.00
11511;DHT22;5812;48.864;9.190;2022-09-09T04:21:33;15.30;1.00
11511;DHT22;5812;48.864;9.190;2022-09-09T04:23:58;15.50;1.00
11511;DHT22;5812;48.864;9.190;2022-09-09T04:26:24;15.50;99.90
11511;DHT22;5812;48.864;9.190;2022-09-09T04:28:50;15.40;1.00
11511;DHT22;5812;48.864;9.190;2022-09-09T04:31:18;15.40;1.00
11511;DHT22;5812;48.864;9.190;2022-09-09T04:33:45;15.40;1.00
11511;DHT22;5812;48.864;9.190;2022-09-09T04:36:12;15.50;99.90
11511;DHT22;5812;48.864;9.190;2022-09-09T04:38:38;15.50;1.00
11511;DHT22;5812;48.864;9.190;2022-09-09T04:41:04;15.70;99.90
11511;DHT22;5812;48.864;9.190;2022-09-09T04:43:30;15.70;99.90
11511;DHT22;5812;48.864;9.190;2022-09-09T04:45:56;15.70;99.90
11511;DHT22;5812;48.864;9.190;2022-09-09T04:48:22;15.70;99.90
11511;DHT22;5812;48.864;9.190;2022-09-09T04:51:01;15.70;99.90
11511;DHT22;5812;48.864;9.190;2022-09-09T04:53:27;15.60;99.90
11511;DHT22;5812;48.864;9.190;2022-09-09T04:56:16;15.50;99.90
11511;DHT22;5812;48.864;9.190;2022-09-09T04:58:42;15.60;99.90
11511;DHT22;5812;48.864;9.190;2022-09-09T05:01:12;15.40;1.00
11511;DHT22;5812;48.864;9.190;2022-09-09T05:03:38;15.50;99.90
11511;DHT22;5812;48.864;9.190;2022-09-09T05:06:09;15.60;99.90
11511;DHT22;5812;48.864;9.190;2022-09-09T05:08:37;15.80;99.90
11511;DHT22;5812;48.864;9.190;2022-09-09T05:11:03;15.70;99.90
11511;DHT22;5812;48.864;9.190;2022-09-09T05:13:29;15.90;99.90
11511;DHT22;5812;48.864;9.190;2022-09-09T05:15:56;15.70;99.90
11511;DHT22;5812;48.864;9.190;2022-09-09T05:18:22;15.80;99.90
11511;DHT22;5812;48.864;9.190;2022-09-09T05:20:48;15.80;99.90
11511;DHT22;5812;48.864;9.190;2022-09-09T05:23:14;16.00;99.90
11511;DHT22;5812;48.864;9.190;2022-09-09T05:25:40;16.00;99.90
11511;DHT22;5812;48.864;9.190;2022-09-09T05:28:05;16.00;99.90
11511;DHT22;5812;48.864;9.190;2022-09-09T05:30:33;16.00;99.90
11511;DHT22;5812;48.864;9.190;2022-09-09T05:32:59;16.10;99.90
11511;DHT22;5812;48.864;9.190;2022-09-09T05:35:25;16.00;99.90
11511;DHT22;5812;48.864;9.190;2022-09-09T05:37:50;16.20;99.90
11511;DHT22;5812;48.864;9.190;2022-09-09T05:40:16;16.00;99.90
11511;DHT22;5812;48.864;9.190;2022-09-09T05:42:42;16.00;99.90
11511;DHT22;5812;48.864;9.190;2022-09-09T05:45:08;16.10;99.90
11511;DHT22;5812;48.864;9.190;2022-09-09T05:47:35;16.40;99.90
11511;DHT22;5812;48.864;9.190;2022-09-09T05:50:01;16.50;99.90
11511;DHT22;5812;48.864;9.190;2022-09-09T05:52:26;16.50;99.90
11511;DHT22;5812;48.864;9.190;2022-09-09T05:54:52;16.40;99.90
11511;DHT22;5812;48.864;9.190;2022-09-09T05:57:20;16.50;99.90
11511;DHT22;5812;48.864;9.190;2022-09-09T05:59:46;16.60;88.90
11511;DHT22;5812;48.864;9.190;2022-09-09T06:02:11;16.80;99.90
11511;DHT22;5812;48.864;9.190;2022-09-09T06:04:38;17.80;99.90
11511;DHT22;5812;48.864;9.190;2022-09-09T06:07:05;17.00;99.90
11511;DHT22;5812;48.864;9.190;2022-09-09T06:09:31;17.10;99.90
11511;DHT22;5812;48.864;9.190;2022-09-09T06:11:56;17.20;99.90
11511;DHT22;5812;48.864;9.190;2022-09-09T06:14:23;17.20;46.30
11511;DHT22;5812;48.864;9.190;2022-09-09T06:16:50;17.40;99.90
11511;DHT22;5812;48.864;9.190;2022-09-09T06:19:16;17.70;1.00
11511;DHT22;5812;48.864;9.190;2022-09-09T06:21:42;17.60;1.00
11511;DHT22;5812;48.864;9.190;2022-09-09T06:24:09;18.00;1.00
11511;DHT22;5812;48.864;9.190;2022-09-09T06:26:39;18.10;1.00
11511;DHT22;5812;48.864;9.190;2022-09-09T06:29:08;18.20;1.00
11511;DHT22;5812;48.864;9.190;2022-09-09T06:31:35;18.30;99.90
11511;DHT22;5812;48.864;9.190;2022-09-09T06:34:04;18.20;99.90
11511;DHT22;5812;48.864;9.190;2022-09-09T06:36:32;18.30;99.90
11511;DHT22;5812;48.864;9.190;2022-09-09T06:38:58;18.20;99.90
11511;DHT22;5812;48.864;9.190;2022-09-09T06:41:29;18.20;99.90
11511;DHT22;5812;48.864;9.190;2022-09-09T06:43:55;18.20;99.90
11511;DHT22;5812;48.864;9.190;2022-09-09T06:46:26;18.20;99.90
11511;DHT22;5812;48.864;9.190;2022-09-09T06:48:56;17.90;99.90
11511;DHT22;5812;48.864;9.190;2022-09-09T06:51:29;18.00;99.90
11511;DHT22;5812;48.864;9.190;2022-09-09T06:53:57;18.10;99.90
11511;DHT22;5812;48.864;9.190;2022-09-09T06:58:55;18.40;99.90
11511;DHT22;5812;48.864;9.190;2022-09-09T07:01:23;18.40;99.90
11511;DHT22;5812;48.864;9.190;2022-09-09T07:03:51;18.80;99.90
11511;DHT22;5812;48.864;9.190;2022-09-09T07:06:26;19.00;99.90
11511;DHT22;5812;48.864;9.190;2022-09-09T07:08:57;19.00;99.90
11511;DHT22;5812;48.864;9.190;2022-09-09T07:11:27;19.30;99.90
11511;DHT22;5812;48.864;9.190;2022-09-09T07:13:54;19.50;99.90
11511;DHT22;5812;48.864;9.190;2022-09-09T07:16:21;19.60;73.50
11511;DHT22;5812;48.864;9.190;2022-09-09T07:18:51;19.50;99.90
11511;DHT22;5812;48.864;9.190;2022-09-09T07:21:18;19.50;98.30
11511;DHT22;5812;48.864;9.190;2022-09-09T07:23:46;19.60;99.90
11511;DHT22;5812;48.864;9.190;2022-09-09T07:26:13;19.80;54.80
11511;DHT22;5812;48.864;9.190;2022-09-09T07:28:40;19.20;95.00
11511;DHT22;5812;48.864;9.190;2022-09-09T07:31:07;19.00;99.90
11511;DHT22;5812;48.864;9.190;2022-09-09T07:33:34;19.10;99.90
11511;DHT22;5812;48.864;9.190;2022-09-09T07:36:04;19.40;90.40
11511;DHT22;5812;48.864;9.190;2022-09-09T07:38:31;19.40;99.40
11511;DHT22;5812;48.864;9.190;2022-09-09T07:41:05;19.60;99.90
11511;DHT22;5812;48.864;9.190;2022-09-09T07:43:31;19.90;99.90
11511;DHT22;5812;48.864;9.190;2022-09-09T07:46:00;20.10;88.70
11511;DHT22;5812;48.864;9.190;2022-09-09T07:48:29;20.10;47.70
11511;DHT22;5812;48.864;9.190;2022-09-09T07:51:10;20.20;40.90
11511;DHT22;5812;48.864;9.190;2022-09-09T07:53:37;20.50;32.40
11511;DHT22;5812;48.864;9.190;2022-09-09T07:56:09;20.80;41.50
11511;DHT22;5812;48.864;9.190;2022-09-09T07:58:36;20.80;44.60
11511;DHT22;5812;48.864;9.190;2022-09-09T08:01:29;20.80;41.30
11511;DHT22;5812;48.864;9.190;2022-09-09T08:04:03;21.10;86.30
11511;DHT22;5812;48.864;9.190;2022-09-09T08:06:33;21.60;36.60
11511;DHT22;5812;48.864;9.190;2022-09-09T08:09:00;22.20;23.30
11511;DHT22;5812;48.864;9.190;2022-09-09T08:11:27;22.30;1.00
11511;DHT22;5812;48.864;9.190;2022-09-09T08:13:54;22.00;3.20
11511;DHT22;5812;48.864;9.190;2022-09-09T08:16:27;22.40;1.00
11511;DHT22;5812;48.864;9.190;2022-09-09T08:18:53;22.70;1.00
11511;DHT22;5812;48.864;9.190;2022-09-09T08:21:28;24.00;1.00
11511;DHT22;5812;48.864;9.190;2022-09-09T08:23:55;22.50;1.00
11511;DHT22;5812;48.864;9.190;2022-09-09T08:26:23;22.60;1.00
11511;DHT22;5812;48.864;9.190;2022-09-09T08:28:50;23.10;1.00
11511;DHT22;5812;48.864;9.190;2022-09-09T08:33:49;23.70;1.00
11511;DHT22;5812;48.864;9.190;2022-09-09T08:36:21;24.10;1.00
11511;DHT22;5812;48.864;9.190;2022-09-09T08:38:52;24.20;1.00
11511;DHT22;5812;48.864;9.190;2022-09-09T08:44:43;23.10;1.00
11511;DHT22;5812;48.864;9.190;2022-09-09T08:50:03;22.10;1.00
11511;DHT22;5812;48.864;9.190;2022-09-09T08:57:49;23.20;1.00
11511;DHT22;5812;48.864;9.190;2022-09-09T09:00:17;23.40;1.00
11511;DHT22;5812;48.864;9.190;2022-09-09T09:05:23;23.10;1.00
11511;DHT22;5812;48.864;9.190;2022-09-09T09:08:03;23.00;1.00
11511;DHT22;5812;48.864;9.190;2022-09-09T09:10:50;23.10;1.00
11511;DHT22;5812;48.864;9.190;2022-09-09T09:13:33;23.10;1.00
11511;DHT22;5812;48.864;9.190;2022-09-09T09:16:12;23.60;1.00
11511;DHT22;5812;48.864;9.190;2022-09-09T09:18:39;24.00;1.00
11511;DHT22;5812;48.864;9.190;2022-09-09T09:21:13;24.50;1.00
11511;DHT22;5812;48.864;9.190;2022-09-09T09:23:48;24.10;1.00
11511;DHT22;5812;48.864;9.190;2022-09-09T09:26:16;24.10;1.00
11511;DHT22;5812;48.864;9.190;2022-09-09T09:28:43;23.90;1.00
11511;DHT22;5812;48.864;9.190;2022-09-09T09:31:12;23.40;1.00
11511;DHT22;5812;48.864;9.190;2022-09-09T09:33:50;22.90;1.00
11511;DHT22;5812;48.864;9.190;2022-09-09T09:36:19;22.80;1.00
11511;DHT22;5812;48.864;9.190;2022-09-09T09:38:56;22.50;1.00
11511;DHT22;5812;48.864;9.190;2022-09-09T09:41:37;22.30;1.00
11511;DHT22;5812;48.864;9.190;2022-09-09T09:44:05;21.90;1.00
11511;DHT22;5812;48.864;9.190;2022-09-09T09:46:31;21.50;1.00
11511;DHT22;5812;48.864;9.190;2022-09-09T09:49:08;21.40;1.00
11511;DHT22;5812;48.864;9.190;2022-09-09T09:51:35;21.80;1.00
11511;DHT22;5812;48.864;9.190;2022-09-09T09:56:40;22.60;1.00
11511;DHT22;5812;48.864;9.190;2022-09-09T09:59:19;22.70;1.00
11511;DHT22;5812;48.864;9.190;2022-09-09T10:01:45;22.80;1.00
11511;DHT22;5812;48.864;9.190;2022-09-09T10:04:19;22.40;1.00
11511;DHT22;5812;48.864;9.190;2022-09-09T10:06:46;22.80;1.00
11511;DHT22;5812;48.864;9.190;2022-09-09T10:09:30;23.30;1.00
11511;DHT22;5812;48.864;9.190;2022-09-09T10:17:23;25.00;1.00
11511;DHT22;5812;48.864;9.190;2022-09-09T10:20:19;24.70;1.00
11511;DHT22;5812;48.864;9.190;2022-09-09T10:22:51;24.90;1.00
11511;DHT22;5812;48.864;9.190;2022-09-09T10:25:35;25.50;1.00
11511;DHT22;5812;48.864;9.190;2022-09-09T10:28:25;25.80;1.00
11511;DHT22;5812;48.864;9.190;2022-09-09T10:33:51;25.70;1.00
11511;DHT22;5812;48.864;9.190;2022-09-09T10:36:25;26.30;1.00
11511;DHT22;5812;48.864;9.190;2022-09-09T10:39:04;27.10;1.00
11511;DHT22;5812;48.864;9.190;2022-09-09T10:41:50;26.90;1.00
11511;DHT22;5812;48.864;9.190;2022-09-09T10:44:57;26.60;1.00
11511;DHT22;5812;48.864;9.190;2022-09-09T10:50:43;27.20;1.00
11511;DHT22;5812;48.864;9.190;2022-09-09T10:53:28;27.70;1.00
11511;DHT22;5812;48.864;9.190;2022-09-09T10:56:11;27.40;1.00
11511;DHT22;5812;48.864;9.190;2022-09-09T10:58:40;26.70;1.00
11511;DHT22;5812;48.864;9.190;2022-09-09T11:01:32;26.20;1.00
11511;DHT22;5812;48.864;9.190;2022-09-09T11:04:10;26.00;1.00
11511;DHT22;5812;48.864;9.190;2022-09-09T11:06:41;25.80;1.00
11511;DHT22;5812;48.864;9.190;2022-09-09T11:09:16;25.00;1.00
11511;DHT22;5812;48.864;9.190;2022-09-09T11:11:56;24.10;1.00
11511;DHT22;5812;48.864;9.190;2022-09-09T11:17:48;23.10;1.00
11511;DHT22;5812;48.864;9.190;2022-09-09T11:20:15;22.20;1.00
11511;DHT22;5812;48.864;9.190;2022-09-09T11:22:45;21.40;21.40
11511;DHT22;5812;48.864;9.190;2022-09-09T11:25:40;19.80;1.00
11511;DHT22;5812;48.864;9.190;2022-09-09T11:28:32;18.40;99.90
11511;DHT22;5812;48.864;9.190;2022-09-09T11:34:16;17.70;1.00
11511;DHT22;5812;48.864;9.190;2022-09-09T11:42:19;17.70;1.00
11511;DHT22;5812;48.864;9.190;2022-09-09T11:44:45;17.80;51.30
11511;DHT22;5812;48.864;9.190;2022-09-09T11:47:28;18.40;41.60
11511;DHT22;5812;48.864;9.190;2022-09-09T11:52:45;19.40;1.00
11511;DHT22;5812;48.864;9.190;2022-09-09T11:58:04;19.60;99.90
11511;DHT22;5812;48.864;9.190;2022-09-09T12:00:39;19.80;1.00
11511;DHT22;5812;48.864;9.190;2022-09-09T12:03:38;19.90;99.90
11511;DHT22;5812;48.864;9.190;2022-09-09T12:06:33;20.70;22.00
11511;DHT22;5812;48.864;9.190;2022-09-09T12:14:43;21.10;16.10
11511;DHT22;5812;48.864;9.190;2022-09-09T12:17:30;21.20;99.90
11511;DHT22;5812;48.864;9.190;2022-09-09T12:23:33;24.40;1.00
11511;DHT22;5812;48.864;9.190;2022-09-09T12:28:32;25.50;1.00
11511;DHT22;5812;48.864;9.190;2022-09-09T12:34:16;26.30;1.00
11511;DHT22;5812;48.864;9.190;2022-09-09T12:36:44;28.50;1.00
11511;DHT22;5812;48.864;9.190;2022-09-09T12:39:38;31.10;1.00
11511;DHT22;5812;48.864;9.190;2022-09-09T12:42:04;33.00;1.00
11511;DHT22;5812;48.864;9.190;2022-09-09T12:44:30;33.30;1.00
11511;DHT22;5812;48.864;9.190;2022-09-09T12:47:01;31.60;1.00
11511;DHT22;5812;48.864;9.190;2022-09-09T12:49:47;31.10;1.00
11511;DHT22;5812;48.864;9.190;2022-09-09T12:55:21;33.00;1.00
11511;DHT22;5812;48.864;9.190;2022-09-09T12:57:50;31.50;1.00
11511;DHT22;5812;48.864;9.190;2022-09-09T13:00:22;30.60;1.00
11511;DHT22;5812;48.864;9.190;2022-09-09T13:02:56;29.90;1.00
11511;DHT22;5812;48.864;9.190;2022-09-09T13:05:37;30.60;1.00
11511;DHT22;5812;48.864;9.190;2022-09-09T13:08:04;32.10;1.00
11511;DHT22;5812;48.864;9.190;2022-09-09T13:10:35;33.60;1.00
11511;DHT22;5812;48.864;9.190;2022-09-09T13:13:05;34.10;1.00
11511;DHT22;5812;48.864;9.190;2022-09-09T13:15:37;34.60;1.00
11511;DHT22;5812;48.864;9.190;2022-09-09T13:18:06;35.40;1.00
11511;DHT22;5812;48.864;9.190;2022-09-09T13:20:35;32.30;1.00
11511;DHT22;5812;48.864;9.190;2022-09-09T13:23:02;31.00;1.00
11511;DHT22;5812;48.864;9.190;2022-09-09T13:25:28;31.80;1.00
11511;DHT22;5812;48.864;9.190;2022-09-09T13:28:02;32.60;1.00
11511;DHT22;5812;48.864;9.190;2022-09-09T13:30:36;33.60;1.00
11511;DHT22;5812;48.864;9.190;2022-09-09T13:33:18;33.40;1.00
11511;DHT22;5812;48.864;9.190;2022-09-09T13:35:54;31.60;1.00
11511;DHT22;5812;48.864;9.190;2022-09-09T13:38:21;30.70;1.00
11511;DHT22;5812;48.864;9.190;2022-09-09T13:41:02;29.20;1.00
11511;DHT22;5812;48.864;9.190;2022-09-09T13:43:38;27.60;1.00
11511;DHT22;5812;48.864;9.190;2022-09-09T13:46:21;26.20;1.00
11511;DHT22;5812;48.864;9.190;2022-09-09T13:48:58;25.60;1.00
11511;DHT22;5812;48.864;9.190;2022-09-09T13:54:26;24.50;1.00
11511;DHT22;5812;48.864;9.190;2022-09-09T13:56:52;24.60;1.00
11511;DHT22;5812;48.864;9.190;2022-09-09T13:59:20;24.30;1.00
11511;DHT22;5812;48.864;9.190;2022-09-09T14:01:47;24.70;1.00
11511;DHT22;5812;48.864;9.190;2022-09-09T14:04:14;25.00;1.00
11511;DHT22;5812;48.864;9.190;2022-09-09T14:06:41;25.40;1.00
11511;DHT22;5812;48.864;9.190;2022-09-09T14:09:10;26.10;1.00
11511;DHT22;5812;48.864;9.190;2022-09-09T14:11:36;26.10;1.00
11511;DHT22;5812;48.864;9.190;2022-09-09T14:14:02;25.50;1.00
11511;DHT22;5812;48.864;9.190;2022-09-09T14:16:28;24.90;1.00
11511;DHT22;5812;48.864;9.190;2022-09-09T14:18:54;24.30;1.00
11511;DHT22;5812;48.864;9.190;2022-09-09T14:21:25;24.30;1.00
11511;DHT22;5812;48.864;9.190;2022-09-09T14:23:51;24.40;1.00
11511;DHT22;5812;48.864;9.190;2022-09-09T14:26:18;24.40;1.00
11511;DHT22;5812;48.864;9.190;2022-09-09T14:28:44;23.90;1.00
11511;DHT22;5812;48.864;9.190;2022-09-09T14:31:11;23.70;1.00
11511;DHT22;5812;48.864;9.190;2022-09-09T14:33:38;23.50;1.00
11511;DHT22;5812;48.864;9.190;2022-09-09T14:36:04;23.50;1.00
11511;DHT22;5812;48.864;9.190;2022-09-09T14:38:33;23.20;1.00
11511;DHT22;5812;48.864;9.190;2022-09-09T14:41:00;23.40;1.00
11511;DHT22;5812;48.864;9.190;2022-09-09T14:43:26;23.30;1.00
11511;DHT22;5812;48.864;9.190;2022-09-09T14:45:53;23.10;1.00
11511;DHT22;5812;48.864;9.190;2022-09-09T14:48:18;23.00;1.00
11511;DHT22;5812;48.864;9.190;2022-09-09T14:50:44;23.10;1.00
11511;DHT22;5812;48.864;9.190;2022-09-09T14:53:10;23.20;1.00
11511;DHT22;5812;48.864;9.190;2022-09-09T14:55:36;23.40;1.00
11511;DHT22;5812;48.864;9.190;2022-09-09T14:58:03;23.30;1.00
11511;DHT22;5812;48.864;9.190;2022-09-09T15:00:29;23.30;1.00
11511;DHT22;5812;48.864;9.190;2022-09-09T15:02:55;23.30;1.00
11511;DHT22;5812;48.864;9.190;2022-09-09T15:05:21;23.30;1.00
11511;DHT22;5812;48.864;9.190;2022-09-09T15:07:47;23.50;1.00
11511;DHT22;5812;48.864;9.190;2022-09-09T15:10:14;23.50;1.00
11511;DHT22;5812;48.864;9.190;2022-09-09T15:12:39;23.60;1.00
11511;DHT22;5812;48.864;9.190;2022-09-09T15:15:07;23.60;1.00
11511;DHT22;5812;48.864;9.190;2022-09-09T15:17:34;23.50;1.00
11511;DHT22;5812;48.864;9.190;2022-09-09T15:19:59;23.30;1.00
11511;DHT22;5812;48.864;9.190;2022-09-09T15:22:25;23.10;1.00
11511;DHT22;5812;48.864;9.190;2022-09-09T15:24:51;23.10;1.00
11511;DHT22;5812;48.864;9.190;2022-09-09T15:27:16;22.90;1.00
11511;DHT22;5812;48.864;9.190;2022-09-09T15:29:43;22.60;1.00
11511;DHT22;5812;48.864;9.190;2022-09-09T15:32:09;22.40;1.00
11511;DHT22;5812;48.864;9.190;2022-09-09T15:34:35;22.40;1.00
11511;DHT22;5812;48.864;9.190;2022-09-09T15:37:00;22.30;1.00
11511;DHT22;5812;48.864;9.190;2022-09-09T15:39:26;22.40;1.00
11511;DHT22;5812;48.864;9.190;2022-09-09T15:41:52;22.50;1.00
11511;DHT22;5812;48.864;9.190;2022-09-09T15:44:18;22.60;1.00
11511;DHT22;5812;48.864;9.190;2022-09-09T15:46:51;22.60;1.00
11511;DHT22;5812;48.864;9.190;2022-09-09T15:49:25;22.60;1.00
11511;DHT22;5812;48.864;9.190;2022-09-09T15:52:00;22.30;1.00
11511;DHT22;5812;48.864;9.190;2022-09-09T15:54:33;22.10;1.00
11511;DHT22;5812;48.864;9.190;2022-09-09T15:57:01;22.00;1.00
11511;DHT22;5812;48.864;9.190;2022-09-09T15:59:29;21.70;1.00
11511;DHT22;5812;48.864;9.190;2022-09-09T16:01:55;21.70;1.00
11511;DHT22;5812;48.864;9.190;2022-09-09T16:04:22;21.60;1.00
11511;DHT22;5812;48.864;9.190;2022-09-09T16:06:53;21.50;1.00
11511;DHT22;5812;48.864;9.190;2022-09-09T16:09:19;21.40;1.00
11511;DHT22;5812;48.864;9.190;2022-09-09T16:11:45;21.40;1.00
11511;DHT22;5812;48.864;9.190;2022-09-09T16:14:12;21.40;1.00
11511;DHT22;5812;48.864;9.190;2022-09-09T16:16:38;21.30;1.00
11511;DHT22;5812;48.864;9.190;2022-09-09T16:19:06;21.30;1.00
11511;DHT22;5812;48.864;9.190;2022-09-09T16:21:35;21.30;1.00
11511;DHT22;5812;48.864;9.190;2022-09-09T16:24:02;21.40;1.00
11511;DHT22;5812;48.864;9.190;2022-09-09T16:26:31;21.20;1.00
11511;DHT22;5812;48.864;9.190;2022-09-09T16:28:57;20.80;1.00
11511;DHT22;5812;48.864;9.190;2022-09-09T16:31:25;20.30;1.00
11511;DHT22;5812;48.864;9.190;2022-09-09T16:33:51;19.90;1.00
11511;DHT22;5812;48.864;9.190;2022-09-09T16:36:20;19.30;1.00
11511;DHT22;5812;48.864;9.190;2022-09-09T16:38:46;18.80;1.00
11511;DHT22;5812;48.864;9.190;2022-09-09T16:41:13;18.40;15.90
11511;DHT22;5812;48.864;9.190;2022-09-09T16:43:39;17.80;99.90
11511;DHT22;5812;48.864;9.190;2022-09-09T16:46:16;17.40;99.90
11511;DHT22;5812;48.864;9.190;2022-09-09T16:48:43;17.30;99.90
11511;DHT22;5812;48.864;9.190;2022-09-09T16:51:19;17.30;99.90
11511;DHT22;5812;48.864;9.190;2022-09-09T16:53:45;17.40;99.90
11511;DHT22;5812;48.864;9.190;2022-09-09T16:56:17;17.40;99.90
11511;DHT22;5812;48.864;9.190;2022-09-09T16:58:49;17.30;27.20
11511;DHT22;5812;48.864;9.190;2022-09-09T17:01:15;17.10;1.00
11511;DHT22;5812;48.864;9.190;2022-09-09T17:03:41;16.90;99.90
11511;DHT22;5812;48.864;9.190;2022-09-09T17:06:14;16.70;99.90
11511;DHT22;5812;48.864;9.190;2022-09-09T17:08:41;16.60;1.00
11511;DHT22;5812;48.864;9.190;2022-09-09T17:11:17;16.50;99.90
11511;DHT22;5812;48.864;9.190;2022-09-09T17:13:44;16.50;1.00
11511;DHT22;5812;48.864;9.190;2022-09-09T17:16:11;16.40;1.00
11511;DHT22;5812;48.864;9.190;2022-09-09T17:18:37;16.30;1.00
11511;DHT22;5812;48.864;9.190;2022-09-09T17:21:08;16.10;1.00
11511;DHT22;5812;48.864;9.190;2022-09-09T17:23:36;16.10;1.00
11511;DHT22;5812;48.864;9.190;2022-09-09T17:26:12;16.00;1.00
11511;DHT22;5812;48.864;9.190;2022-09-09T17:28:40;15.90;1.00
11511;DHT22;5812;48.864;9.190;2022-09-09T17:31:07;15.70;1.00
11511;DHT22;5812;48.864;9.190;2022-09-09T17:33:35;15.60;1.00
11511;DHT22;5812;48.864;9.190;2022-09-09T17:36:23;15.60;1.00
11511;DHT22;5812;48.864;9.190;2022-09-09T17:38:48;15.50;1.00
11511;DHT22;5812;48.864;9.190;2022-09-09T17:43:40;15.40;1.00
11511;DHT22;5812;48.864;9.190;2022-09-09T17:48:36;15.30;1.00
11511;DHT22;5812;48.864;9.190;2022-09-09T17:51:03;15.30;1.00
11511;DHT22;5812;48.864;9.190;2022-09-09T17:53:29;15.30;3.70
11511;DHT22;5812;48.864;9.190;2022-09-09T17:56:05;15.30;18.20
11511;DHT22;5812;48.864;9.190;2022-09-09T17:58:31;15.40;1.00
11511;DHT22;5812;48.864;9.190;2022-09-09T18:01:06;15.50;1.00
11511;DHT22;5812;48.864;9.190;2022-09-09T18:03:39;15.50;1.00
11511;DHT22;5812;48.864;9.190;2022-09-09T18:06:11;15.40;8.40
11511;DHT22;5812;48.864;9.190;2022-09-09T18:08:42;15.40;19.10
11511;DHT22;5812;48.864;9.190;2022-09-09T18:11:08;15.50;1.00
11511;DHT22;5812;48.864;9.190;2022-09-09T18:13:34;15.60;1.00
11511;DHT22;5812;48.864;9.190;2022-09-09T18:16:00;15.60;1.00
11511;DHT22;5812;48.864;9.190;2022-09-09T18:18:27;16.00;1.00